Time;durP1;ratioP1;P1;durP2;ratioP2;P2;SDS_P1;SDS_P2;PMS_P1;PMS_P2;Temp;Humidity;BMP_temperature;BMP_pressure;BME280_temperature;BME280_humidity;BME280_pressure;Samples;Min_cycle;Max_cycle;Signal;HPM_P1;HPM_P2
2023/07/10 00:01:42;;;;;;;;;;;;;;;24.91;45.94;98448.94;7373054;19;19935;-68
2023/07/10 00:04:15;;;;;;;;;;;;;;;24.86;46.24;98448.84;7374814;19;19919;-68
2023/07/10 00:06:42;;;;;;;;;;;;;;;24.74;47.01;98454.34;7373833;19;19914;-68
2023/07/10 00:09:09;;;;;;;;;;;;;;;24.70;46.86;98439.69;7371022;19;20398;-67
2023/07/10 00:11:35;;;;;;;;;;;;;;;24.68;46.86;98442.63;7371116;19;19922;-68
2023/07/10 00:14:04;;;;;;;;;;;;;;;24.69;47.08;98440.72;7369791;19;19923;-68
2023/07/10 00:16:31;;;;;;;;;;;;;;;24.63;47.10;98442.53;7376142;19;21133;-68
2023/07/10 00:18:58;;;;;;;;;;;;;;;24.59;48.08;98440.56;7373614;19;19914;-68
2023/07/10 00:21:24;;;;;;;;;;;;;;;24.61;47.28;98441.13;7366541;19;20010;-67
2023/07/10 00:23:51;;;;;;;;;;;;;;;24.62;47.98;98440.91;7374652;19;19975;-68
2023/07/10 00:26:22;;;;;;;;;;;;;;;24.52;47.18;98441.53;7371362;19;19918;-68
2023/07/10 00:28:49;;;;;;;;;;;;;;;24.50;47.46;98457.19;7371897;19;19919;-68
2023/07/10 00:31:16;;;;;;;;;;;;;;;24.59;46.78;98483.81;7371408;19;20022;-69
2023/07/10 00:33:47;;;;;;;;;;;;;;;24.70;46.39;98497.31;7372100;19;19919;-68
2023/07/10 00:36:33;;;;;;;;;;;;;;;24.87;47.04;98478.34;7370510;19;19922;-67
2023/07/10 00:39:00;;;;;;;;;;;;;;;24.84;46.32;98459.91;7378357;19;19923;-68
2023/07/10 00:41:37;;;;;;;;;;;;;;;24.83;48.43;98479.94;7373175;19;19943;-68
2023/07/10 00:44:03;;;;;;;;;;;;;;;24.82;47.01;98455.81;7367778;19;19915;-68
2023/07/10 00:46:35;;;;;;;;;;;;;;;24.79;47.83;98457.13;7382259;19;19927;-68
2023/07/10 00:49:06;;;;;;;;;;;;;;;24.69;47.82;98456.94;7378372;19;20243;-68
2023/07/10 00:51:36;;;;;;;;;;;;;;;24.40;47.66;98451.56;7373330;19;19919;-68
2023/07/10 00:54:02;;;;;;;;;;;;;;;24.21;47.94;98436.63;7376535;19;20255;-68
2023/07/10 00:56:31;;;;;;;;;;;;;;;24.47;47.57;98451.44;7378897;19;19923;-68
2023/07/10 00:58:58;;;;;;;;;;;;;;;24.54;47.79;98465.66;7369733;19;19915;-68
2023/07/10 01:01:25;;;;;;;;;;;;;;;24.50;48.64;98475.31;7376160;19;20637;-67
2023/07/10 01:03:52;;;;;;;;;;;;;;;24.43;49.35;98480.81;7376823;19;19926;-68
2023/07/10 01:06:23;;;;;;;;;;;;;;;24.37;48.73;98486.38;7380211;19;19911;-69
2023/07/10 01:08:51;;;;;;;;;;;;;;;24.38;49.40;98498.84;7378199;19;19926;-69
2023/07/10 01:11:18;;;;;;;;;;;;;;;24.27;49.11;98505.94;7375362;19;19915;-69
2023/07/10 01:13:45;;;;;;;;;;;;;;;24.24;51.19;98511.81;7376045;19;20551;-69
2023/07/10 01:16:12;;;;;;;;;;;;;;;24.34;50.05;98517.44;7372147;19;20617;-69
2023/07/10 01:18:39;;;;;;;;;;;;;;;24.40;49.69;98534.56;7376548;19;19947;-69
2023/07/10 01:21:07;;;;;;;;;;;;;;;24.47;51.49;98535.28;7372671;19;20664;-69
2023/07/10 01:23:34;;;;;;;;;;;;;;;24.53;49.79;98537.00;7378875;19;19926;-69
2023/07/10 01:26:02;;;;;;;;;;;;;;;24.51;49.88;98545.38;7374545;19;19938;-69
2023/07/10 01:28:29;;;;;;;;;;;;;;;24.50;50.36;98553.72;7380732;19;20343;-69
2023/07/10 01:30:56;;;;;;;;;;;;;;;24.60;50.47;98555.81;7371288;19;20285;-69
2023/07/10 01:33:25;;;;;;;;;;;;;;;24.52;50.38;98538.09;7374953;19;19943;-69
2023/07/10 01:35:52;;;;;;;;;;;;;;;24.47;51.13;98533.41;7373481;19;19922;-69
2023/07/10 01:38:19;;;;;;;;;;;;;;;24.36;50.38;98533.44;7379338;19;19919;-69
2023/07/10 01:40:51;;;;;;;;;;;;;;;24.28;51.05;98527.34;7376054;19;19919;-69
2023/07/10 01:43:18;;;;;;;;;;;;;;;24.18;50.74;98518.22;7377172;19;19931;-69
2023/07/10 01:45:45;;;;;;;;;;;;;;;24.13;50.87;98513.50;7376767;19;19919;-69
2023/07/10 01:48:12;;;;;;;;;;;;;;;24.04;51.07;98514.94;7373917;19;19919;-69
2023/07/10 01:50:39;;;;;;;;;;;;;;;23.94;51.39;98523.69;7372304;19;19925;-68
2023/07/10 01:53:07;;;;;;;;;;;;;;;23.75;51.95;98514.06;7374912;19;20351;-69
2023/07/10 01:55:38;;;;;;;;;;;;;;;23.77;51.52;98515.47;7371657;19;20272;-69
2023/07/10 01:58:05;;;;;;;;;;;;;;;23.66;51.23;98508.19;7375062;19;20628;-69
2023/07/10 02:00:32;;;;;;;;;;;;;;;23.72;50.76;98501.03;7371873;19;19978;-69
2023/07/10 02:02:59;;;;;;;;;;;;;;;23.76;50.68;98496.81;7377597;19;19926;-69
2023/07/10 02:05:25;;;;;;;;;;;;;;;23.81;52.25;98502.31;7377394;19;19926;-69
2023/07/10 02:07:52;;;;;;;;;;;;;;;23.80;52.03;98493.41;7369729;19;19982;-69
2023/07/10 02:10:19;;;;;;;;;;;;;;;23.85;52.13;98492.66;7375329;19;19935;-69
2023/07/10 02:12:54;;;;;;;;;;;;;;;23.86;52.55;98500.56;7371294;19;19923;-69
2023/07/10 02:15:21;;;;;;;;;;;;;;;23.88;52.56;98494.88;7378142;19;19952;-69
2023/07/10 02:17:49;;;;;;;;;;;;;;;23.89;53.26;98499.25;7372936;19;19923;-69
2023/07/10 02:20:16;;;;;;;;;;;;;;;23.79;52.55;98501.75;7354616;19;19990;-69
2023/07/10 02:22:42;;;;;;;;;;;;;;;23.80;52.05;98496.13;7367428;19;19926;-69
2023/07/10 02:25:09;;;;;;;;;;;;;;;23.75;52.17;98489.75;7374448;19;21628;-69
2023/07/10 02:27:36;;;;;;;;;;;;;;;23.74;51.92;98493.53;7372839;19;19923;-69
2023/07/10 02:30:03;;;;;;;;;;;;;;;23.82;51.08;98490.44;7368492;19;19947;-69
2023/07/10 02:32:30;;;;;;;;;;;;;;;23.77;52.02;98493.03;7371689;19;19991;-69
2023/07/10 02:34:56;;;;;;;;;;;;;;;23.72;52.23;98484.84;7371091;19;19918;-69
2023/07/10 02:37:23;;;;;;;;;;;;;;;23.74;52.74;98488.13;7368635;19;19911;-70
2023/07/10 02:39:50;;;;;;;;;;;;;;;23.65;53.38;98491.16;7368475;19;19936;-70
2023/07/10 02:42:16;;;;;;;;;;;;;;;23.72;52.23;98501.03;7370269;19;20346;-70
2023/07/10 02:44:43;;;;;;;;;;;;;;;23.70;53.04;98495.00;7371485;19;19919;-69
2023/07/10 02:47:10;;;;;;;;;;;;;;;23.62;53.00;98517.84;7373859;19;19925;-69
2023/07/10 02:49:36;;;;;;;;;;;;;;;23.67;52.97;98531.44;7376326;19;19919;-69
2023/07/10 02:52:03;;;;;;;;;;;;;;;23.75;53.07;98535.69;7367807;19;19925;-69
2023/07/10 02:54:31;;;;;;;;;;;;;;;23.71;53.08;98532.59;7368228;19;19919;-69
2023/07/10 02:56:57;;;;;;;;;;;;;;;23.82;53.46;98534.50;7369116;19;20344;-70
2023/07/10 02:59:27;;;;;;;;;;;;;;;24.01;52.47;98531.63;7371267;19;19925;-69
2023/07/10 03:01:54;;;;;;;;;;;;;;;23.89;52.81;98528.97;7366403;19;19987;-69
2023/07/10 03:04:21;;;;;;;;;;;;;;;23.85;52.73;98519.69;7376388;19;20728;-69
2023/07/10 03:06:48;;;;;;;;;;;;;;;23.81;53.42;98518.53;7369885;19;19930;-69
2023/07/10 03:09:15;;;;;;;;;;;;;;;23.78;53.92;98527.13;7375848;19;19922;-68
2023/07/10 03:11:42;;;;;;;;;;;;;;;23.77;53.62;98541.66;7369169;19;20513;-68
2023/07/10 03:14:08;;;;;;;;;;;;;;;23.74;54.92;98531.34;7370702;19;20463;-69
2023/07/10 03:16:35;;;;;;;;;;;;;;;23.81;55.26;98549.06;7373983;19;19954;-69
2023/07/10 03:19:04;;;;;;;;;;;;;;;23.84;54.48;98559.41;7372902;19;19942;-69
2023/07/10 03:21:31;;;;;;;;;;;;;;;23.93;53.11;98557.16;7369408;19;19942;-69
2023/07/10 03:23:58;;;;;;;;;;;;;;;23.79;53.32;98555.78;7373643;19;19915;-69
2023/07/10 03:26:24;;;;;;;;;;;;;;;23.82;54.01;98564.22;7376154;19;19931;-68
2023/07/10 03:29:03;;;;;;;;;;;;;;;23.84;54.13;98574.78;7373107;19;20786;-69
2023/07/10 03:31:30;;;;;;;;;;;;;;;23.83;55.24;98575.88;7373340;19;19919;-70
2023/07/10 03:33:57;;;;;;;;;;;;;;;23.87;55.85;98574.31;7376516;19;19915;-69
2023/07/10 03:36:24;;;;;;;;;;;;;;;23.97;55.08;98568.31;7373200;19;19970;-69
2023/07/10 03:38:50;;;;;;;;;;;;;;;24.00;55.31;98565.13;7375496;19;19915;-69
2023/07/10 03:41:17;;;;;;;;;;;;;;;23.93;54.52;98557.16;7371589;19;19919;-69
2023/07/10 03:43:44;;;;;;;;;;;;;;;23.90;55.12;98560.31;7370937;19;19952;-73
2023/07/10 03:46:11;;;;;;;;;;;;;;;23.90;55.31;98568.44;7369645;19;20023;-70
2023/07/10 03:48:38;;;;;;;;;;;;;;;23.99;55.41;98574.31;7373677;19;20264;-69
2023/07/10 03:51:05;;;;;;;;;;;;;;;23.90;55.47;98587.34;7370097;19;19994;-69
2023/07/10 03:53:32;;;;;;;;;;;;;;;23.91;54.99;98588.16;7374570;19;20015;-69
2023/07/10 03:55:58;;;;;;;;;;;;;;;23.88;55.06;98584.06;7372735;19;19918;-68
2023/07/10 03:58:27;;;;;;;;;;;;;;;23.88;55.35;98586.75;7374182;19;19926;-69
2023/07/10 04:00:55;;;;;;;;;;;;;;;23.97;55.52;98606.97;7373815;19;19926;-69
2023/07/10 04:03:27;;;;;;;;;;;;;;;24.14;56.15;98606.22;7369314;19;19943;-68
2023/07/10 04:05:56;;;;;;;;;;;;;;;24.27;55.86;98614.06;7375500;19;19915;-69
2023/07/10 04:08:36;;;;;;;;;;;;;;;24.38;55.87;98615.94;7371211;19;19925;-69
2023/07/10 04:11:04;;;;;;;;;;;;;;;24.59;55.38;98608.25;7368579;19;19915;-69
2023/07/10 04:13:31;;;;;;;;;;;;;;;24.70;54.42;98596.59;7371771;19;19911;-68
2023/07/10 04:15:58;;;;;;;;;;;;;;;24.90;52.84;98605.06;7373878;19;19919;-69
2023/07/10 04:18:26;;;;;;;;;;;;;;;24.96;54.19;98597.84;7371887;19;20556;-69
2023/07/10 04:20:52;;;;;;;;;;;;;;;25.09;54.31;98599.44;7369265;19;19923;-69
2023/07/10 04:23:19;;;;;;;;;;;;;;;25.17;55.20;98605.31;7371755;19;20628;-69
2023/07/10 04:25:46;;;;;;;;;;;;;;;25.22;54.62;98609.16;7378370;19;19922;-69
2023/07/10 04:28:13;;;;;;;;;;;;;;;25.19;55.57;98622.09;7368658;19;19919;-68
2023/07/10 04:30:39;;;;;;;;;;;;;;;25.25;53.08;98628.47;7361007;19;20267;-70
2023/07/10 04:33:08;;;;;;;;;;;;;;;25.26;52.86;98624.66;7368247;19;19918;-69
2023/07/10 04:35:35;;;;;;;;;;;;;;;25.11;54.69;98635.19;7364971;19;19921;-70
2023/07/10 04:38:01;;;;;;;;;;;;;;;25.09;53.85;98645.44;7364245;19;19926;-70
2023/07/10 04:40:30;;;;;;;;;;;;;;;25.23;53.51;98648.72;7364786;19;19927;-69
2023/07/10 04:42:57;;;;;;;;;;;;;;;25.25;53.06;98650.13;7368310;19;19941;-69
2023/07/10 04:45:23;;;;;;;;;;;;;;;25.21;53.14;98638.13;7369465;19;20336;-69
2023/07/10 04:47:50;;;;;;;;;;;;;;;25.07;53.24;98637.59;7370062;19;20261;-69
2023/07/10 04:50:17;;;;;;;;;;;;;;;25.24;53.06;98637.63;7369446;19;19919;-69
2023/07/10 04:52:44;;;;;;;;;;;;;;;25.18;51.82;98639.44;7367693;19;19918;-69
2023/07/10 04:55:10;;;;;;;;;;;;;;;25.13;52.91;98647.44;7370175;19;19923;-69
2023/07/10 04:57:37;;;;;;;;;;;;;;;25.02;53.77;98655.63;7371332;19;19922;-70
2023/07/10 05:00:05;;;;;;;;;;;;;;;24.66;55.15;98644.91;7367419;19;19925;-68
2023/07/10 05:02:31;;;;;;;;;;;;;;;24.43;55.50;98637.66;7366626;19;19937;-70
2023/07/10 05:04:58;;;;;;;;;;;;;;;24.46;55.14;98621.00;7369715;19;19923;-69
2023/07/10 05:07:25;;;;;;;;;;;;;;;24.60;54.51;98609.91;7371936;19;19918;-69
2023/07/10 05:09:52;;;;;;;;;;;;;;;24.80;53.14;98607.56;7372915;19;19996;-70
2023/07/10 05:12:18;;;;;;;;;;;;;;;24.86;53.28;98606.63;7366822;19;19918;-70
2023/07/10 05:14:45;;;;;;;;;;;;;;;24.89;55.18;98635.09;7370027;19;19919;-70
2023/07/10 05:17:12;;;;;;;;;;;;;;;24.97;55.32;98678.81;7373681;19;19944;-70
2023/07/10 05:19:39;;;;;;;;;;;;;;;25.13;55.84;98707.00;7373983;19;19918;-70
2023/07/10 05:22:05;;;;;;;;;;;;;;;25.49;54.27;98696.00;7365122;19;19930;-69
2023/07/10 05:24:32;;;;;;;;;;;;;;;25.67;53.94;98693.06;7369799;19;19918;-69
2023/07/10 05:26:59;;;;;;;;;;;;;;;25.70;54.14;98698.00;7373279;19;19919;-69
2023/07/10 05:29:26;;;;;;;;;;;;;;;25.84;53.16;98702.03;7381541;19;19918;-69
2023/07/10 05:31:52;;;;;;;;;;;;;;;25.96;52.64;98693.00;7376904;19;19937;-69
2023/07/10 05:34:22;;;;;;;;;;;;;;;26.08;53.69;98691.03;7377906;19;19928;-69
2023/07/10 05:36:49;;;;;;;;;;;;;;;26.13;52.29;98682.16;7378940;19;19927;-69
2023/07/10 05:39:16;;;;;;;;;;;;;;;26.13;52.49;98674.00;7380041;19;19931;-69
2023/07/10 05:41:43;;;;;;;;;;;;;;;26.23;51.51;98677.69;7373763;19;19925;-69
2023/07/10 05:44:10;;;;;;;;;;;;;;;26.40;52.21;98677.63;7368389;19;19929;-69
2023/07/10 05:46:36;;;;;;;;;;;;;;;26.48;50.57;98666.34;7375151;19;20344;-69
2023/07/10 05:49:03;;;;;;;;;;;;;;;26.61;49.39;98661.63;7379394;19;19926;-68
2023/07/10 05:51:30;;;;;;;;;;;;;;;26.80;49.57;98653.97;7378291;19;19929;-69
2023/07/10 05:53:57;;;;;;;;;;;;;;;26.71;49.64;98665.28;7386778;19;19919;-68
2023/07/10 05:56:24;;;;;;;;;;;;;;;26.91;50.14;98682.91;7383060;19;19922;-69
2023/07/10 05:58:50;;;;;;;;;;;;;;;26.90;51.05;98698.34;7378728;19;19918;-69
2023/07/10 06:01:17;;;;;;;;;;;;;;;27.00;50.71;98702.28;7374332;19;19922;-69
2023/07/10 06:03:44;;;;;;;;;;;;;;;27.09;50.12;98711.59;7380568;19;19927;-69
2023/07/10 06:06:11;;;;;;;;;;;;;;;27.24;50.97;98721.84;7379258;19;19942;-70
2023/07/10 06:08:38;;;;;;;;;;;;;;;27.34;49.70;98730.91;7378475;19;20241;-70
2023/07/10 06:11:05;;;;;;;;;;;;;;;27.54;50.01;98730.31;7376789;19;20204;-70
2023/07/10 06:13:32;;;;;;;;;;;;;;;27.74;49.38;98728.81;7380106;19;19927;-70
2023/07/10 06:15:59;;;;;;;;;;;;;;;28.07;48.61;98722.31;7376584;19;19926;-70
2023/07/10 06:18:26;;;;;;;;;;;;;;;28.31;46.63;98711.88;7379266;19;20592;-70
2023/07/10 06:20:53;;;;;;;;;;;;;;;28.38;46.64;98719.78;7377287;19;20018;-70
2023/07/10 06:23:20;;;;;;;;;;;;;;;28.34;45.26;98716.78;7378565;19;19926;-70
2023/07/10 06:25:47;;;;;;;;;;;;;;;28.66;44.57;98716.69;7380766;19;19914;-70
2023/07/10 06:28:13;;;;;;;;;;;;;;;28.65;45.87;98708.81;7378052;19;19919;-70
2023/07/10 06:30:40;;;;;;;;;;;;;;;28.73;45.19;98716.47;7378255;19;19932;-70
2023/07/10 06:33:07;;;;;;;;;;;;;;;28.95;44.17;98705.38;7375871;19;19922;-70
2023/07/10 06:35:37;;;;;;;;;;;;;;;29.25;43.93;98698.38;7378877;19;19933;-70
2023/07/10 06:38:04;;;;;;;;;;;;;;;29.13;44.02;98697.84;7378459;19;19927;-70
2023/07/10 06:40:30;;;;;;;;;;;;;;;29.00;44.77;98685.50;7378888;19;19919;-70
2023/07/10 06:42:57;;;;;;;;;;;;;;;29.09;43.62;98683.91;7378007;19;19934;-70
2023/07/10 06:45:24;;;;;;;;;;;;;;;29.36;43.53;98677.41;7374550;19;19949;-70
2023/07/10 06:47:51;;;;;;;;;;;;;;;29.51;43.11;98672.78;7373921;19;19914;-70
2023/07/10 06:50:18;;;;;;;;;;;;;;;29.73;42.64;98669.03;7374245;19;20555;-70
2023/07/10 06:52:44;;;;;;;;;;;;;;;29.95;42.44;98663.25;7378437;19;19978;-69
2023/07/10 06:55:13;;;;;;;;;;;;;;;29.82;41.58;98667.38;7375329;19;20290;-69
2023/07/10 06:57:40;;;;;;;;;;;;;;;29.86;41.91;98673.06;7378262;19;19922;-69
2023/07/10 07:00:08;;;;;;;;;;;;;;;29.54;42.71;98677.72;7376236;19;19925;-70
2023/07/10 07:02:35;;;;;;;;;;;;;;;29.90;42.79;98682.34;7377489;19;19934;-70
2023/07/10 07:05:03;;;;;;;;;;;;;;;30.08;42.64;98681.78;7382317;19;20605;-70
2023/07/10 07:07:29;;;;;;;;;;;;;;;30.17;42.50;98682.03;7383938;19;19915;-70
2023/07/10 07:09:56;;;;;;;;;;;;;;;30.60;42.24;98680.56;7379326;19;19942;-69
2023/07/10 07:12:23;;;;;;;;;;;;;;;30.51;42.11;98701.34;7373032;19;19926;-69
2023/07/10 07:14:49;;;;;;;;;;;;;;;30.57;41.31;98689.31;7377425;19;19931;-70
2023/07/10 07:17:16;;;;;;;;;;;;;;;30.87;41.51;98692.22;7373884;19;19922;-70
2023/07/10 07:19:44;;;;;;;;;;;;;;;30.47;41.40;98699.47;7372942;19;19982;-70
2023/07/10 07:22:11;;;;;;;;;;;;;;;30.60;41.67;98704.34;7370961;19;20272;-70
2023/07/10 07:24:37;;;;;;;;;;;;;;;30.32;42.90;98706.59;7375351;19;19993;-69
2023/07/10 07:27:04;;;;;;;;;;;;;;;30.35;41.99;98716.13;7376641;19;19923;-70
2023/07/10 07:29:31;;;;;;;;;;;;;;;30.19;42.43;98721.59;7374577;19;19922;-69
2023/07/10 07:31:57;;;;;;;;;;;;;;;29.83;44.62;98730.91;7374738;19;19920;-69
2023/07/10 07:34:24;;;;;;;;;;;;;;;29.82;44.40;98724.63;7377680;19;20204;-69
2023/07/10 07:36:51;;;;;;;;;;;;;;;29.85;43.33;98724.09;7377032;19;19926;-69
2023/07/10 07:39:20;;;;;;;;;;;;;;;29.55;44.61;98724.88;7371879;19;20264;-70
2023/07/10 07:41:47;;;;;;;;;;;;;;;29.60;44.58;98740.44;7372866;19;20287;-69
2023/07/10 07:44:14;;;;;;;;;;;;;;;29.21;45.33;98736.25;7374319;19;20525;-69
2023/07/10 07:46:41;;;;;;;;;;;;;;;29.49;44.73;98734.97;7374020;19;20347;-70
2023/07/10 07:49:08;;;;;;;;;;;;;;;29.49;45.02;98731.38;7376578;19;20002;-69
2023/07/10 07:51:36;;;;;;;;;;;;;;;29.85;44.18;98735.00;7370145;19;20002;-70
2023/07/10 07:54:08;;;;;;;;;;;;;;;29.92;43.31;98735.53;7371992;19;19931;-69
2023/07/10 07:56:35;;;;;;;;;;;;;;;30.31;43.36;98737.72;7372022;19;19939;-69
2023/07/10 07:59:01;;;;;;;;;;;;;;;30.37;43.69;98735.78;7374480;19;19915;-69
2023/07/10 08:01:28;;;;;;;;;;;;;;;30.57;42.68;98734.91;7370375;19;19970;-69
2023/07/10 08:03:56;;;;;;;;;;;;;;;30.76;42.34;98740.59;7371946;19;19918;-68
2023/07/10 08:06:30;;;;;;;;;;;;;;;30.37;42.35;98733.06;7372842;19;19925;-69
2023/07/10 08:08:56;;;;;;;;;;;;;;;30.56;42.17;98731.34;7374324;19;19922;-69
2023/07/10 08:11:23;;;;;;;;;;;;;;;30.87;41.88;98731.28;7372702;19;19925;-69
2023/07/10 08:13:50;;;;;;;;;;;;;;;30.31;43.04;98726.00;7370880;19;19927;-70
2023/07/10 08:16:17;;;;;;;;;;;;;;;30.87;41.74;98716.81;7375660;19;20429;-69
2023/07/10 08:18:44;;;;;;;;;;;;;;;30.99;41.58;98731.78;7377570;19;20316;-69
2023/07/10 08:21:11;;;;;;;;;;;;;;;30.90;42.40;98721.72;7369890;19;19926;-70
2023/07/10 08:23:38;;;;;;;;;;;;;;;30.98;42.25;98718.41;7375986;19;19943;-69
2023/07/10 08:26:05;;;;;;;;;;;;;;;30.71;42.08;98729.69;7375569;19;20006;-69
2023/07/10 08:28:33;;;;;;;;;;;;;;;30.78;43.41;98725.56;7373353;19;19914;-69
2023/07/10 08:30:59;;;;;;;;;;;;;;;31.00;41.67;98729.88;7369814;19;20605;-69
2023/07/10 08:33:26;;;;;;;;;;;;;;;30.82;43.02;98720.38;7373094;19;19919;-70
2023/07/10 08:35:54;;;;;;;;;;;;;;;30.92;43.02;98720.34;7377316;19;19994;-70
2023/07/10 08:38:21;;;;;;;;;;;;;;;30.82;42.48;98728.56;7374301;19;19911;-70
2023/07/10 08:40:48;;;;;;;;;;;;;;;31.20;42.93;98734.38;7372993;19;20344;-69
2023/07/10 08:43:17;;;;;;;;;;;;;;;31.24;42.48;98733.53;7372603;19;19923;-69
2023/07/10 08:45:44;;;;;;;;;;;;;;;31.60;41.66;98736.09;7371006;19;19915;-70
2023/07/10 08:48:20;;;;;;;;;;;;;;;30.97;42.92;98735.91;7368898;19;19987;-69
2023/07/10 08:50:47;;;;;;;;;;;;;;;31.40;42.82;98742.50;7373412;19;19923;-69
2023/07/10 08:53:16;;;;;;;;;;;;;;;31.40;42.50;98737.03;7374626;19;19918;-69
2023/07/10 08:55:43;;;;;;;;;;;;;;;31.92;41.31;98737.47;7375636;19;19915;-69
2023/07/10 08:58:26;;;;;;;;;;;;;;;32.33;40.42;98737.94;7374614;19;19922;-69
2023/07/10 09:00:54;;;;;;;;;;;;;;;32.53;40.01;98741.59;7377653;19;19922;-70
2023/07/10 09:03:40;;;;;;;;;;;;;;;32.60;39.49;98725.63;7376679;19;19925;-69
2023/07/10 09:06:10;;;;;;;;;;;;;;;32.33;39.79;98742.56;7376992;19;20367;-69
2023/07/10 09:08:37;;;;;;;;;;;;;;;32.25;40.40;98741.28;7379999;19;20334;-69
2023/07/10 09:11:04;;;;;;;;;;;;;;;31.68;41.17;98734.66;7378118;19;20374;-70
2023/07/10 09:13:31;;;;;;;;;;;;;;;32.33;40.66;98734.34;7376716;19;20412;-71
2023/07/10 09:15:58;;;;;;;;;;;;;;;32.53;40.57;98736.91;7381841;19;19935;-70
2023/07/10 09:18:43;;;;;;;;;;;;;;;32.44;40.47;98740.53;7378695;19;19922;-70
2023/07/10 09:21:20;;;;;;;;;;;;;;;32.75;39.76;98743.78;7371833;19;19943;-70
2023/07/10 09:23:47;;;;;;;;;;;;;;;33.17;39.07;98739.44;7380032;19;20285;-70
2023/07/10 09:26:15;;;;;;;;;;;;;;;32.78;40.22;98746.78;7379168;19;19911;-71
2023/07/10 09:28:42;;;;;;;;;;;;;;;32.95;39.77;98748.22;7382864;19;19923;-71
2023/07/10 09:31:09;;;;;;;;;;;;;;;32.80;38.77;98743.72;7373073;19;20342;-70
2023/07/10 09:33:37;;;;;;;;;;;;;;;33.15;39.39;98739.75;7379920;19;19918;-71
2023/07/10 09:36:11;;;;;;;;;;;;;;;32.81;39.13;98742.63;7376359;19;19930;-70
2023/07/10 09:38:38;;;;;;;;;;;;;;;32.98;39.51;98734.72;7379095;19;19917;-70
2023/07/10 09:41:09;;;;;;;;;;;;;;;33.07;39.13;98734.91;7373238;19;19922;-72
2023/07/10 09:43:37;;;;;;;;;;;;;;;33.24;38.55;98742.63;7381407;19;19926;-71
2023/07/10 09:46:04;;;;;;;;;;;;;;;32.64;39.28;98737.63;7377809;19;20340;-71
2023/07/10 09:48:35;;;;;;;;;;;;;;;32.36;40.36;98736.50;7379814;19;20200;-70
2023/07/10 09:51:02;;;;;;;;;;;;;;;32.24;40.13;98734.19;7390793;19;19940;-71
2023/07/10 09:53:48;;;;;;;;;;;;;;;32.62;39.89;98728.06;7391655;19;19918;-71
2023/07/10 09:56:32;;;;;;;;;;;;;;;32.30;40.19;98733.00;7384086;19;19919;-70
2023/07/10 09:58:59;;;;;;;;;;;;;;;32.38;39.60;98720.63;7376900;19;20000;-71
2023/07/10 10:01:30;;;;;;;;;;;;;;;32.85;38.59;98740.13;7379532;19;19915;-71
2023/07/10 10:03:57;;;;;;;;;;;;;;;32.85;39.23;98740.91;7380362;19;19935;-71
2023/07/10 10:06:25;;;;;;;;;;;;;;;33.26;38.50;98729.47;7376784;19;20347;-71
2023/07/10 10:08:52;;;;;;;;;;;;;;;33.42;37.13;98725.38;7373839;19;20403;-70
2023/07/10 10:11:28;;;;;;;;;;;;;;;33.10;38.17;98719.78;7376279;19;19915;-70
2023/07/10 10:13:58;;;;;;;;;;;;;;;33.05;38.03;98720.69;7379380;19;20550;-69
2023/07/10 10:16:42;;;;;;;;;;;;;;;33.23;37.53;98722.63;7377609;19;19927;-70
2023/07/10 10:19:12;;;;;;;;;;;;;;;32.89;37.30;98716.47;7392058;19;19963;-70
2023/07/10 10:21:39;;;;;;;;;;;;;;;33.02;38.50;98721.28;7387426;19;20307;-70
2023/07/10 10:24:08;;;;;;;;;;;;;;;32.82;38.63;98716.84;7383230;19;19915;-69
2023/07/10 10:26:44;;;;;;;;;;;;;;;33.29;37.70;98708.84;7374764;19;19922;-69
2023/07/10 10:29:19;;;;;;;;;;;;;;;33.29;36.52;98709.66;7378883;19;19919;-71
2023/07/10 10:32:06;;;;;;;;;;;;;;;33.67;36.82;98709.66;7377244;19;19923;-70
2023/07/10 10:34:44;;;;;;;;;;;;;;;33.37;36.46;98709.00;7375761;19;19926;-70
2023/07/10 10:37:30;;;;;;;;;;;;;;;33.34;36.86;98711.53;7374938;19;19915;-70
2023/07/10 10:39:59;;;;;;;;;;;;;;;33.82;36.50;98697.59;7379474;19;20352;-70
2023/07/10 10:42:28;;;;;;;;;;;;;;;33.38;37.38;98702.38;7370145;19;20467;-70
2023/07/10 10:44:59;;;;;;;;;;;;;;;33.43;37.98;98699.56;7375160;19;19930;-70
2023/07/10 10:47:31;;;;;;;;;;;;;;;33.57;36.45;98705.16;7375912;19;19919;-70
2023/07/10 10:50:01;;;;;;;;;;;;;;;33.63;37.54;98714.94;7377031;19;19923;-69
2023/07/10 10:52:34;;;;;;;;;;;;;;;33.40;37.45;98704.84;7377057;19;19914;-71
2023/07/10 10:55:16;;;;;;;;;;;;;;;32.98;38.62;98704.56;7375899;19;19922;-71
2023/07/10 10:57:43;;;;;;;;;;;;;;;32.60;38.37;98713.81;7377927;19;20493;-70
2023/07/10 11:00:12;;;;;;;;;;;;;;;33.17;38.02;98699.13;7374592;19;19925;-69
2023/07/10 11:02:51;;;;;;;;;;;;;;;33.44;37.51;98700.38;7378752;19;19921;-69
2023/07/10 11:05:40;;;;;;;;;;;;;;;33.20;37.02;98705.94;7372360;19;20486;-71
2023/07/10 11:08:26;;;;;;;;;;;;;;;33.30;37.49;98699.50;7377995;19;19930;-71
2023/07/10 11:10:53;;;;;;;;;;;;;;;33.01;37.94;98692.25;7375234;19;19938;-70
2023/07/10 11:13:31;;;;;;;;;;;;;;;32.88;38.25;98684.72;7375127;19;20573;-69
2023/07/10 11:15:59;;;;;;;;;;;;;;;32.85;38.18;98679.84;7372655;19;19947;-70
2023/07/10 11:18:26;;;;;;;;;;;;;;;33.02;37.36;98674.69;7370247;19;19919;-69
2023/07/10 11:20:53;;;;;;;;;;;;;;;33.17;37.84;98671.72;7373291;19;19918;-70
2023/07/10 11:23:36;;;;;;;;;;;;;;;33.13;37.82;98673.44;7376020;19;19990;-71
2023/07/10 11:26:07;;;;;;;;;;;;;;;33.03;37.58;98656.31;7375697;19;19939;-71
2023/07/10 11:28:34;;;;;;;;;;;;;;;33.12;36.50;98655.34;7376716;19;19934;-69
2023/07/10 11:31:17;;;;;;;;;;;;;;;33.01;37.58;98651.94;7376467;19;19917;-72
2023/07/10 11:33:44;;;;;;;;;;;;;;;33.18;36.83;98645.94;7372362;19;19923;-70
2023/07/10 11:36:11;;;;;;;;;;;;;;;33.16;36.94;98650.09;7372525;19;19918;-70
2023/07/10 11:39:16;;;;;;;;;;;;;;;33.36;36.67;98644.28;7369289;19;19914;-72
2023/07/10 11:41:43;;;;;;;;;;;;;;;33.26;36.64;98638.97;7368847;19;19933;-71
2023/07/10 11:44:28;;;;;;;;;;;;;;;33.31;36.77;98643.53;7370227;19;19935;-70
2023/07/10 11:47:01;;;;;;;;;;;;;;;33.44;35.17;98634.53;7371162;19;19926;-70
2023/07/10 11:49:34;;;;;;;;;;;;;;;33.37;35.94;98632.19;7373410;19;19943;-69
2023/07/10 11:52:13;;;;;;;;;;;;;;;33.02;36.44;98630.84;7370039;19;19952;-70
2023/07/10 11:55:00;;;;;;;;;;;;;;;33.05;36.56;98635.72;7376213;19;19994;-69
2023/07/10 11:57:27;;;;;;;;;;;;;;;33.02;35.52;98636.34;7376145;19;19919;-69
2023/07/10 11:59:55;;;;;;;;;;;;;;;32.97;35.24;98628.16;7379789;19;19923;-70
2023/07/10 12:02:33;;;;;;;;;;;;;;;33.01;35.83;98629.19;7371609;19;19910;-70
2023/07/10 12:05:10;;;;;;;;;;;;;;;33.32;34.05;98623.25;7371217;19;20282;-69
2023/07/10 12:07:37;;;;;;;;;;;;;;;33.56;33.58;98621.22;7369360;19;20462;-68
2023/07/10 12:10:04;;;;;;;;;;;;;;;33.48;32.89;98623.81;7376841;19;19911;-69
2023/07/10 12:12:34;;;;;;;;;;;;;;;33.72;31.81;98618.22;7373007;19;19911;-69
2023/07/10 12:15:02;;;;;;;;;;;;;;;33.75;32.49;98623.09;7375550;19;19922;-70
2023/07/10 12:17:30;;;;;;;;;;;;;;;33.59;32.96;98622.53;7387059;19;19935;-68
2023/07/10 12:20:00;;;;;;;;;;;;;;;33.37;33.55;98612.19;7390317;19;19918;-69
2023/07/10 12:22:29;;;;;;;;;;;;;;;33.54;32.64;98604.22;7371047;19;19915;-69
2023/07/10 12:24:58;;;;;;;;;;;;;;;33.77;32.05;98623.59;7377039;19;19922;-70
2023/07/10 12:27:30;;;;;;;;;;;;;;;33.35;32.91;98612.47;7374131;19;20450;-71
2023/07/10 12:30:21;;;;;;;;;;;;;;;33.44;32.41;98601.63;7371651;19;22657;-69
2023/07/10 12:32:49;;;;;;;;;;;;;;;33.20;31.99;98610.81;7382022;19;19925;-71
2023/07/10 12:35:26;;;;;;;;;;;;;;;33.47;32.63;98612.03;7384903;19;19926;-70
2023/07/10 12:37:53;;;;;;;;;;;;;;;33.48;32.54;98605.41;7382908;19;19934;-69
2023/07/10 12:40:20;;;;;;;;;;;;;;;33.36;32.25;98602.31;7376814;19;19919;-70
2023/07/10 12:42:47;;;;;;;;;;;;;;;33.74;32.09;98592.09;7381505;19;19931;-70
2023/07/10 12:45:15;;;;;;;;;;;;;;;33.80;32.17;98595.56;7379272;19;19926;-69
2023/07/10 12:47:45;;;;;;;;;;;;;;;34.00;31.96;98605.34;7384487;19;21052;-69
2023/07/10 12:50:53;;;;;;;;;;;;;;;33.78;31.78;98601.38;7379682;19;20291;-70
2023/07/10 12:53:21;;;;;;;;;;;;;;;33.80;30.80;98598.28;7379001;19;19927;-69
2023/07/10 12:55:52;;;;;;;;;;;;;;;34.03;31.36;98608.28;7377707;19;19925;-69
2023/07/10 12:58:34;;;;;;;;;;;;;;;33.94;31.11;98599.13;7376421;19;19930;-70